Terminal Aerodrome Forecast
Issued by NWS

Home | Current Version | Previous Version | Text Only | Print | Product List | Glossary On
Versions: 1 2 3 4 5 6 7 8 9 10 11 12 13 14 15 16 17 18 19 20 21
000
FTUS41 KBOX 200540
TAFMHT
TAF
KMHT 200540Z 2006/2106 36005KT P6SM SCT250
     FM201500 12005KT P6SM FEW250
     FM201900 15007KT P6SM FEW130
     FM210300 17004KT P6SM FEW120=

USA.gov is the U.S. government's official web portal to all federal, state and local government web resources and services.